Time;durP1;ratioP1;P1;durP2;ratioP2;P2;SDS_P1;SDS_P2;PMS_P1;PMS_P2;Temp;Humidity;BMP_temperature;BMP_pressure;BME280_temperature;BME280_humidity;BME280_pressure;Samples;Min_cycle;Max_cycle;Signal;HPM_P1;HPM_P2
2023/04/28 00:01:10;;;;;;;4.18;3.47;;;11.20;79.60;;;;;;5041647;28;20052;-42
2023/04/28 00:03:36;;;;;;;4.38;3.60;;;11.20;79.60;;;;;;5042420;28;20077;-43
2023/04/28 00:06:02;;;;;;;5.70;4.28;;;11.20;79.60;;;;;;5042892;28;20025;-44
2023/04/28 00:08:30;;;;;;;4.35;3.40;;;11.20;79.70;;;;;;5041809;28;20645;-44
2023/04/28 00:10:56;;;;;;;4.97;3.70;;;11.10;79.70;;;;;;5042560;28;20032;-43
2023/04/28 00:13:22;;;;;;;4.30;3.40;;;11.10;79.70;;;;;;5043169;28;20480;-43
2023/04/28 00:15:49;;;;;;;5.13;3.80;;;11.10;79.80;;;;;;5041046;28;20025;-42
2023/04/28 00:18:15;;;;;;;5.60;3.47;;;11.00;79.80;;;;;;5042748;28;20635;-43
2023/04/28 00:20:40;;;;;;;4.82;3.65;;;11.00;79.90;;;;;;5041907;28;20039;-44
2023/04/28 00:23:06;;;;;;;6.93;3.83;;;11.00;80.00;;;;;;5042088;28;20025;-43
2023/04/28 00:25:32;;;;;;;6.00;3.92;;;11.00;80.10;;;;;;5042235;28;20029;-43
2023/04/28 00:28:00;;;;;;;4.57;3.58;;;11.00;80.20;;;;;;5041759;28;20891;-43
2023/04/28 00:30:26;;;;;;;6.95;4.03;;;11.00;80.40;;;;;;5041980;28;20646;-43
2023/04/28 00:32:51;;;;;;;8.65;3.78;;;10.90;80.40;;;;;;5041695;28;20028;-44
2023/04/28 00:35:17;;;;;;;4.30;3.15;;;10.90;80.60;;;;;;5041892;28;20108;-43
2023/04/28 00:37:43;;;;;;;4.13;3.38;;;10.90;80.70;;;;;;5042268;28;20047;-43
2023/04/28 00:40:08;;;;;;;5.05;3.20;;;10.90;80.80;;;;;;5041713;28;20061;-42
2023/04/28 00:42:34;;;;;;;3.95;3.10;;;10.90;80.80;;;;;;5041215;28;20227;-42
2023/04/28 00:45:05;;;;;;;4.43;3.17;;;10.90;80.90;;;;;;5041325;28;20496;-43
2023/04/28 00:47:34;;;;;;;4.97;3.55;;;10.80;80.90;;;;;;5041153;28;20126;-45
2023/04/28 00:50:01;;;;;;;5.82;3.30;;;10.80;81.00;;;;;;5040525;28;20029;-34
2023/04/28 00:52:27;;;;;;;5.22;3.40;;;10.80;81.10;;;;;;5040561;28;20567;-34
2023/04/28 00:54:53;;;;;;;4.88;3.42;;;10.80;81.20;;;;;;5039711;28;20101;-33
2023/04/28 00:57:19;;;;;;;3.58;2.90;;;10.80;81.30;;;;;;5020862;28;20029;-33
2023/04/28 00:59:44;;;;;;;4.68;3.63;;;10.80;81.30;;;;;;5035205;28;20029;-33
2023/04/28 01:02:16;;;;;;;5.65;3.17;;;10.90;81.40;;;;;;5041112;28;20381;-33
2023/04/28 01:04:45;;;;;;;4.35;3.20;;;10.90;81.50;;;;;;5040583;28;20039;-34
2023/04/28 01:07:14;;;;;;;3.45;2.97;;;10.80;81.50;;;;;;5041725;28;20028;-33
2023/04/28 01:09:39;;;;;;;4.68;3.50;;;10.80;81.50;;;;;;5040662;28;20431;-33
2023/04/28 01:12:05;;;;;;;4.32;3.03;;;10.80;81.70;;;;;;5040514;28;20047;-33
2023/04/28 01:14:32;;;;;;;3.75;3.00;;;10.80;82.00;;;;;;5041870;28;20170;-35
2023/04/28 01:16:58;;;;;;;4.07;3.38;;;10.80;82.50;;;;;;5039772;28;20058;-32
2023/04/28 01:19:23;;;;;;;4.55;3.28;;;10.70;83.00;;;;;;5040893;28;20086;-33
2023/04/28 01:21:49;;;;;;;4.80;3.38;;;10.80;83.40;;;;;;5041032;28;20025;-32
2023/04/28 01:24:16;;;;;;;5.50;3.42;;;10.70;84.00;;;;;;5040964;28;20214;-33
2023/04/28 01:26:41;;;;;;;4.03;3.22;;;10.70;84.70;;;;;;5040537;28;20021;-33
2023/04/28 01:29:07;;;;;;;4.28;3.28;;;10.60;84.90;;;;;;5041664;28;20055;-42
2023/04/28 01:31:32;;;;;;;5.22;3.50;;;10.60;85.40;;;;;;5040100;28;20024;-42
2023/04/28 01:33:58;;;;;;;6.18;3.78;;;10.50;85.80;;;;;;5041207;28;20123;-44
2023/04/28 01:36:27;;;;;;;4.38;3.25;;;10.40;86.40;;;;;;5040862;28;20025;-44
2023/04/28 01:38:53;;;;;;;4.60;3.80;;;10.40;86.90;;;;;;5039887;28;20032;-43
2023/04/28 01:41:18;;;;;;;5.50;3.78;;;10.30;87.20;;;;;;5040839;28;20017;-43
2023/04/28 01:43:44;;;;;;;5.22;4.10;;;10.30;87.60;;;;;;5040586;28;20025;-43
2023/04/28 01:46:09;;;;;;;4.13;3.60;;;10.30;88.40;;;;;;5040033;28;20060;-43
2023/04/28 01:48:35;;;;;;;4.55;3.10;;;10.30;88.50;;;;;;5040894;28;20033;-43
2023/04/28 01:51:03;;;;;;;6.35;3.90;;;10.20;88.70;;;;;;5040113;28;20120;-43
2023/04/28 01:53:29;;;;;;;4.57;3.50;;;10.20;88.90;;;;;;5040884;28;20032;-43
2023/04/28 01:55:55;;;;;;;6.32;3.40;;;10.20;89.00;;;;;;5040318;28;20031;-43
2023/04/28 01:58:20;;;;;;;6.10;3.58;;;10.20;89.00;;;;;;5040064;28;20463;-43
2023/04/28 02:00:46;;;;;;;4.53;3.55;;;10.20;89.30;;;;;;5038954;28;20104;-43
2023/04/28 02:03:12;;;;;;;4.15;3.60;;;10.20;89.40;;;;;;5039992;28;20140;-42
2023/04/28 02:05:41;;;;;;;5.80;4.05;;;10.20;89.50;;;;;;5039201;28;20070;-44
2023/04/28 02:08:06;;;;;;;6.18;4.38;;;10.20;89.70;;;;;;5039218;28;20760;-43
2023/04/28 02:10:32;;;;;;;4.43;3.53;;;10.20;89.80;;;;;;5040143;28;20151;-44
2023/04/28 02:12:57;;;;;;;4.28;3.20;;;10.20;90.00;;;;;;5040003;28;20116;-43
2023/04/28 02:15:23;;;;;;;5.95;3.30;;;10.20;90.00;;;;;;5039888;28;20062;-44
2023/04/28 02:17:48;;;;;;;4.32;3.40;;;10.20;90.10;;;;;;5040236;28;20053;-43
2023/04/28 02:20:14;;;;;;;4.28;3.53;;;10.20;90.10;;;;;;5039444;28;20125;-42
2023/04/28 02:22:40;;;;;;;6.30;3.70;;;10.20;90.10;;;;;;5040470;28;20449;-42
2023/04/28 02:25:06;;;;;;;8.15;3.70;;;10.20;90.20;;;;;;5040184;28;20528;-43
2023/04/28 02:27:35;;;;;;;4.20;3.45;;;10.20;90.30;;;;;;5040290;28;20087;-43
2023/04/28 02:30:04;;;;;;;5.47;3.83;;;10.20;90.30;;;;;;5040439;28;20507;-44
2023/04/28 02:32:30;;;;;;;5.05;3.60;;;10.20;90.40;;;;;;5040046;28;20610;-43
2023/04/28 02:34:56;;;;;;;4.97;3.72;;;10.20;90.40;;;;;;5040462;28;20025;-43
2023/04/28 02:37:21;;;;;;;5.50;3.88;;;10.20;90.50;;;;;;5041997;28;20044;-43
2023/04/28 02:39:47;;;;;;;5.97;3.65;;;10.20;90.50;;;;;;5044873;28;20025;-33
2023/04/28 02:42:13;;;;;;;8.93;3.65;;;10.20;90.50;;;;;;5043699;28;20380;-33
2023/04/28 02:44:38;;;;;;;5.10;3.85;;;10.20;90.60;;;;;;5044329;28;20071;-32
2023/04/28 02:47:04;;;;;;;5.30;3.50;;;10.20;90.60;;;;;;5044373;28;20076;-33
2023/04/28 02:49:29;;;;;;;5.28;4.00;;;10.20;90.60;;;;;;5044082;28;20064;-33
2023/04/28 02:51:55;;;;;;;6.40;4.40;;;10.20;90.60;;;;;;5043671;28;20021;-34
2023/04/28 02:54:27;;;;;;;4.50;3.50;;;10.20;90.70;;;;;;5043989;28;20103;-34
2023/04/28 02:56:56;;;;;;;4.32;3.55;;;10.20;90.70;;;;;;5043767;28;20021;-33
2023/04/28 02:59:23;;;;;;;5.57;3.90;;;10.20;90.70;;;;;;5044086;28;20036;-34
2023/04/28 03:01:48;;;;;;;3.80;3.20;;;10.20;90.70;;;;;;5044783;28;20036;-34
2023/04/28 03:04:15;;;;;;;3.78;3.35;;;10.20;90.70;;;;;;5042821;28;20175;-33
2023/04/28 03:06:41;;;;;;;4.32;3.38;;;10.20;90.80;;;;;;5043675;28;20037;-33
2023/04/28 03:09:07;;;;;;;5.18;3.42;;;10.20;90.80;;;;;;5043516;28;20855;-41
2023/04/28 03:11:33;;;;;;;4.55;3.72;;;10.10;90.80;;;;;;5041772;28;20378;-33
2023/04/28 03:13:58;;;;;;;6.20;4.13;;;10.10;90.80;;;;;;5042769;28;20021;-32
2023/04/28 03:16:24;;;;;;;5.22;3.80;;;10.10;90.90;;;;;;5042973;28;20116;-33
2023/04/28 03:18:49;;;;;;;4.25;3.35;;;10.10;90.90;;;;;;5042756;28;20093;-34
2023/04/28 03:21:15;;;;;;;5.18;3.90;;;10.10;90.90;;;;;;5042981;28;20056;-33
2023/04/28 03:23:41;;;;;;;3.95;3.20;;;10.10;91.00;;;;;;5043340;28;20108;-42
2023/04/28 03:26:06;;;;;;;3.53;3.22;;;10.10;91.00;;;;;;5043130;28;20393;-43
2023/04/28 03:28:32;;;;;;;5.47;3.88;;;10.10;91.10;;;;;;5042977;28;20029;-43
2023/04/28 03:30:57;;;;;;;6.45;3.53;;;10.10;91.10;;;;;;5042678;28;20064;-43
2023/04/28 03:33:23;;;;;;;4.00;3.17;;;10.10;91.20;;;;;;5043141;28;20120;-43
2023/04/28 03:35:49;;;;;;;7.07;4.05;;;10.10;91.20;;;;;;5043549;28;20175;-44
2023/04/28 03:38:15;;;;;;;5.28;4.45;;;10.10;91.30;;;;;;5042644;28;20689;-43
2023/04/28 03:40:40;;;;;;;6.13;3.95;;;10.10;91.30;;;;;;5042580;28;20052;-43
2023/04/28 03:43:06;;;;;;;6.38;3.75;;;10.10;91.40;;;;;;5042911;28;20406;-44
2023/04/28 03:45:32;;;;;;;4.90;3.45;;;10.10;91.40;;;;;;5042124;28;20134;-43
2023/04/28 03:47:57;;;;;;;8.32;4.07;;;10.10;91.50;;;;;;5042247;28;20040;-43
2023/04/28 03:50:23;;;;;;;5.00;3.70;;;10.10;91.50;;;;;;5041597;28;20064;-43
2023/04/28 03:52:48;;;;;;;5.90;4.03;;;10.10;91.60;;;;;;5041549;28;20065;-44
2023/04/28 03:55:14;;;;;;;4.28;3.75;;;10.10;91.60;;;;;;5043154;28;20067;-43
2023/04/28 03:57:39;;;;;;;6.15;4.10;;;10.20;91.70;;;;;;5043567;28;20024;-42
2023/04/28 04:00:06;;;;;;;4.93;3.90;;;10.20;91.80;;;;;;5041886;28;20028;-43
2023/04/28 04:02:32;;;;;;;4.40;4.00;;;10.10;91.80;;;;;;5042471;28;20017;-43
2023/04/28 04:04:57;;;;;;;4.75;3.67;;;10.10;91.90;;;;;;5042650;28;20036;-43
2023/04/28 04:07:23;;;;;;;5.63;4.13;;;10.20;92.00;;;;;;5041962;28;20060;-42
2023/04/28 04:09:48;;;;;;;5.82;4.15;;;10.20;92.00;;;;;;5042043;28;20032;-43
2023/04/28 04:12:14;;;;;;;4.80;3.90;;;10.20;92.00;;;;;;5042561;28;20051;-43
2023/04/28 04:14:39;;;;;;;5.00;4.18;;;10.20;92.10;;;;;;5040875;28;20021;-45
2023/04/28 04:17:05;;;;;;;4.30;3.72;;;10.20;92.20;;;;;;5041446;28;20067;-44
2023/04/28 04:19:30;;;;;;;4.70;4.20;;;10.20;92.30;;;;;;5041418;28;20059;-44
2023/04/28 04:21:56;;;;;;;6.18;4.10;;;10.20;92.40;;;;;;5040318;28;20034;-44
2023/04/28 04:24:25;;;;;;;6.57;4.32;;;10.20;92.50;;;;;;5042549;28;20040;-43
2023/04/28 04:26:50;;;;;;;6.60;4.43;;;10.20;92.60;;;;;;5041662;28;20138;-43
2023/04/28 04:29:16;;;;;;;5.25;4.50;;;10.20;92.70;;;;;;5041910;28;20132;-43
2023/04/28 04:31:41;;;;;;;5.70;4.28;;;10.20;92.80;;;;;;5042296;28;20025;-42
2023/04/28 04:34:11;;;;;;;6.50;4.47;;;10.20;92.90;;;;;;5041405;28;20154;-42
2023/04/28 04:36:36;;;;;;;6.05;4.28;;;10.20;92.90;;;;;;5041520;28;20016;-44
2023/04/28 04:39:02;;;;;;;5.18;4.60;;;10.20;93.00;;;;;;5042048;28;20471;-43
2023/04/28 04:41:27;;;;;;;5.13;4.40;;;10.20;93.20;;;;;;5040809;28;20039;-43
2023/04/28 04:43:53;;;;;;;7.55;5.07;;;10.10;93.30;;;;;;5041631;28;20060;-43
2023/04/28 04:46:18;;;;;;;8.95;6.30;;;10.20;93.40;;;;;;5042152;28;20116;-43
2023/04/28 04:48:44;;;;;;;6.45;5.25;;;10.20;93.70;;;;;;5029745;28;20516;-44
2023/04/28 04:51:13;;;;;;;7.63;5.22;;;10.20;93.70;;;;;;5041749;28;20040;-42
2023/04/28 04:53:38;;;;;;;8.00;5.15;;;10.20;93.90;;;;;;5042120;28;20024;-42
2023/04/28 04:56:04;;;;;;;6.20;5.22;;;10.20;93.90;;;;;;5040692;28;20404;-43
2023/04/28 04:58:30;;;;;;;7.10;4.95;;;10.20;94.00;;;;;;5040957;28;20114;-42
2023/04/28 05:00:56;;;;;;;6.55;5.25;;;10.20;94.10;;;;;;5041924;28;20021;-43
2023/04/28 05:03:21;;;;;;;5.03;4.43;;;10.20;94.30;;;;;;5041139;28;20021;-44
2023/04/28 05:05:47;;;;;;;6.85;5.35;;;10.30;94.40;;;;;;5042177;28;20025;-42
2023/04/28 05:08:13;;;;;;;8.45;5.38;;;10.30;94.50;;;;;;5041700;28;20104;-43
2023/04/28 05:10:39;;;;;;;5.30;4.70;;;10.30;94.60;;;;;;5041000;28;20152;-42
2023/04/28 05:13:04;;;;;;;5.95;5.20;;;10.30;94.70;;;;;;5041639;28;20021;-42
2023/04/28 05:15:30;;;;;;;7.38;5.53;;;10.40;94.80;;;;;;5041598;28;20036;-43
2023/04/28 05:17:56;;;;;;;8.77;5.68;;;10.40;94.90;;;;;;5041234;28;20095;-44
2023/04/28 05:20:22;;;;;;;7.65;5.70;;;10.40;95.10;;;;;;5042730;28;20036;-43
2023/04/28 05:22:48;;;;;;;7.13;5.88;;;10.50;95.30;;;;;;5041163;28;20074;-44
2023/04/28 05:25:13;;;;;;;9.30;6.82;;;10.50;95.40;;;;;;5039891;28;20024;-43
2023/04/28 05:27:42;;;;;;;9.02;7.00;;;10.50;95.50;;;;;;5040130;28;20364;-44
2023/04/28 05:30:09;;;;;;;9.38;6.63;;;10.60;95.80;;;;;;5028234;28;20044;-45
2023/04/28 05:32:35;;;;;;;11.27;6.90;;;10.60;95.90;;;;;;5040095;28;20043;-44
2023/04/28 05:35:01;;;;;;;8.43;6.82;;;10.60;96.10;;;;;;5040348;28;20025;-43
2023/04/28 05:37:26;;;;;;;9.25;5.53;;;10.60;96.30;;;;;;5039890;28;20020;-43
2023/04/28 05:39:52;;;;;;;8.13;6.78;;;10.70;96.50;;;;;;5041214;28;20116;-42
2023/04/28 05:42:18;;;;;;;7.82;6.30;;;10.70;96.70;;;;;;5041820;28;20101;-43
2023/04/28 05:44:43;;;;;;;7.18;5.90;;;10.70;96.90;;;;;;5039849;28;20056;-43
2023/04/28 05:47:09;;;;;;;8.18;6.72;;;10.70;97.10;;;;;;5040048;28;20091;-43
2023/04/28 05:49:34;;;;;;;9.93;7.00;;;10.70;97.30;;;;;;5041309;28;20055;-43
2023/04/28 05:52:00;;;;;;;7.85;6.43;;;10.70;97.50;;;;;;5039518;28;20759;-42
2023/04/28 05:54:25;;;;;;;9.00;6.55;;;10.70;97.70;;;;;;5040647;28;20376;-43
2023/04/28 05:56:52;;;;;;;9.07;6.90;;;10.70;97.90;;;;;;5041240;28;20819;-44
2023/04/28 05:59:18;;;;;;;8.77;7.00;;;10.80;98.10;;;;;;5039957;28;20075;-43
2023/04/28 06:01:43;;;;;;;9.00;7.10;;;10.80;98.30;;;;;;5040565;28;20025;-42
2023/04/28 06:04:09;;;;;;;8.25;7.05;;;10.80;98.50;;;;;;5040768;28;20025;-42
2023/04/28 06:06:35;;;;;;;10.13;7.03;;;10.80;98.70;;;;;;5039996;28;20108;-44
2023/04/28 06:09:04;;;;;;;11.43;7.20;;;10.80;98.90;;;;;;5040100;28;20028;-43
2023/04/28 06:11:30;;;;;;;9.13;7.80;;;10.80;99.20;;;;;;5029049;28;20670;-44
2023/04/28 06:13:55;;;;;;;8.93;7.00;;;10.80;99.50;;;;;;5039450;28;20692;-43
2023/04/28 06:16:24;;;;;;;8.50;7.57;;;10.80;99.90;;;;;;5040999;28;20167;-43
2023/04/28 06:18:52;;;;;;;13.60;8.35;;;10.80;99.90;;;;;;5040792;28;20033;-42
2023/04/28 06:21:20;;;;;;;11.82;7.90;;;10.80;99.90;;;;;;5039841;28;20029;-44
2023/04/28 06:23:48;;;;;;;9.75;7.50;;;10.80;99.90;;;;;;5040967;28;20579;-43
2023/04/28 06:26:17;;;;;;;9.18;7.30;;;10.80;99.90;;;;;;5040063;28;20473;-43
2023/04/28 06:28:42;;;;;;;13.07;8.32;;;10.90;99.90;;;;;;5040003;28;20029;-43
2023/04/28 06:31:08;;;;;;;11.45;8.80;;;10.90;99.90;;;;;;5040559;28;20040;-43
2023/04/28 06:33:36;;;;;;;11.85;8.40;;;10.90;99.90;;;;;;5038466;28;20029;-42
2023/04/28 06:36:03;;;;;;;10.80;8.80;;;11.00;99.90;;;;;;5038829;28;20017;-43
2023/04/28 06:38:28;;;;;;;9.88;8.35;;;11.00;99.90;;;;;;5039215;28;20056;-42
2023/04/28 06:40:54;;;;;;;13.27;8.80;;;11.00;99.90;;;;;;5038271;28;20111;-43
2023/04/28 06:43:19;;;;;;;10.40;8.32;;;11.10;99.90;;;;;;5040229;28;20036;-43
2023/04/28 06:45:45;;;;;;;12.50;9.20;;;11.10;99.90;;;;;;5040264;28;20025;-44
2023/04/28 06:48:10;;;;;;;14.48;9.52;;;11.20;99.90;;;;;;5038551;28;20045;-44
2023/04/28 06:50:40;;;;;;;10.52;9.25;;;11.30;99.90;;;;;;5040029;28;20837;-42
2023/04/28 06:53:06;;;;;;;11.40;9.65;;;11.30;99.90;;;;;;5040136;28;20032;-43
2023/04/28 06:55:51;;;;;;;11.70;9.25;;;11.40;99.90;;;;;;5038774;28;20041;-43
2023/04/28 06:58:16;;;;;;;11.65;9.10;;;11.50;99.90;;;;;;5040251;28;20507;-43
2023/04/28 07:00:42;;;;;;;12.05;9.52;;;11.60;99.90;;;;;;5039381;28;20576;-42
2023/04/28 07:03:13;;;;;;;11.35;8.95;;;11.80;99.90;;;;;;5039620;28;20021;-43
2023/04/28 07:05:42;;;;;;;11.15;9.90;;;11.90;99.90;;;;;;5040700;28;20098;-43
2023/04/28 07:08:07;;;;;;;12.63;9.75;;;12.00;99.90;;;;;;5040200;28;20041;-43
2023/04/28 07:10:33;;;;;;;14.63;10.00;;;12.10;99.90;;;;;;5039570;28;20037;-42
2023/04/28 07:12:59;;;;;;;13.20;9.65;;;12.20;99.90;;;;;;5040543;28;20492;-44
2023/04/28 07:15:24;;;;;;;13.63;9.30;;;12.30;99.90;;;;;;5039782;28;20120;-44
2023/04/28 07:17:50;;;;;;;14.18;9.90;;;12.40;99.90;;;;;;5039360;28;20738;-43
2023/04/28 07:20:16;;;;;;;13.57;9.95;;;12.50;99.90;;;;;;5040770;28;20834;-42
2023/04/28 07:22:41;;;;;;;11.82;9.20;;;12.60;99.90;;;;;;5039868;28;20533;-43
2023/04/28 07:25:08;;;;;;;13.25;10.07;;;12.60;99.90;;;;;;5042160;28;20080;-42
2023/04/28 07:27:33;;;;;;;12.85;9.80;;;12.50;99.90;;;;;;5044179;28;20025;-44
2023/04/28 07:29:59;;;;;;;12.25;10.38;;;12.50;99.90;;;;;;5042894;28;20078;-42
2023/04/28 07:32:24;;;;;;;12.25;10.65;;;12.50;99.90;;;;;;5043226;28;20029;-42
2023/04/28 07:34:50;;;;;;;15.23;9.68;;;12.50;99.90;;;;;;5043488;28;20029;-42
2023/04/28 07:37:16;;;;;;;14.45;10.07;;;12.50;99.90;;;;;;5042835;28;20507;-43
2023/04/28 07:39:41;;;;;;;13.25;10.43;;;12.50;99.90;;;;;;5044058;28;20029;-42
2023/04/28 07:42:07;;;;;;;14.05;10.57;;;12.70;99.90;;;;;;5042501;28;20812;-43
2023/04/28 07:44:32;;;;;;;13.90;10.68;;;12.70;99.90;;;;;;5041792;28;20051;-44
2023/04/28 07:46:59;;;;;;;13.13;10.13;;;12.90;99.90;;;;;;5041978;28;20128;-44
2023/04/28 07:49:29;;;;;;;13.90;11.25;;;13.00;99.90;;;;;;5042547;28;20857;-43
2023/04/28 07:51:55;;;;;;;12.30;9.65;;;13.10;99.90;;;;;;5041921;28;20048;-42
2023/04/28 07:54:21;;;;;;;13.27;10.65;;;13.20;99.90;;;;;;5043177;28;20568;-44
2023/04/28 07:56:46;;;;;;;15.73;10.57;;;13.20;99.90;;;;;;5042272;28;20036;-44
2023/04/28 07:59:12;;;;;;;17.73;10.48;;;13.20;99.90;;;;;;5041414;28;20021;-44
2023/04/28 08:01:38;;;;;;;13.80;10.13;;;13.20;99.90;;;;;;5041943;28;20059;-44
2023/04/28 08:04:04;;;;;;;14.18;10.82;;;13.20;99.90;;;;;;5042096;28;20021;-43
2023/04/28 08:06:32;;;;;;;13.13;10.45;;;13.20;99.90;;;;;;5042123;28;20029;-44
2023/04/28 08:08:58;;;;;;;14.20;10.80;;;13.20;99.90;;;;;;5042791;28;20025;-43
2023/04/28 08:11:24;;;;;;;12.38;10.55;;;13.20;99.90;;;;;;5042397;28;20068;-43
2023/04/28 08:13:49;;;;;;;13.48;10.13;;;13.30;99.90;;;;;;5042153;28;20112;-43
2023/04/28 08:16:15;;;;;;;16.60;11.10;;;13.30;99.90;;;;;;5042172;28;20414;-42
2023/04/28 08:18:41;;;;;;;13.50;10.13;;;13.40;99.90;;;;;;5042009;28;20739;-43
2023/04/28 08:21:06;;;;;;;13.98;11.07;;;13.50;99.90;;;;;;5041480;28;20108;-43
2023/04/28 08:23:32;;;;;;;15.50;11.43;;;13.50;99.90;;;;;;5041657;28;20052;-42
2023/04/28 08:25:57;;;;;;;13.35;10.35;;;13.60;99.90;;;;;;5041361;28;20025;-42
2023/04/28 08:28:23;;;;;;;11.52;10.32;;;13.80;99.90;;;;;;5042583;28;20389;-44
2023/04/28 08:30:49;;;;;;;15.68;10.90;;;14.00;99.90;;;;;;5042204;28;20039;-43
2023/04/28 08:33:14;;;;;;;13.30;10.45;;;14.10;99.90;;;;;;5041882;28;20575;-44
2023/04/28 08:35:40;;;;;;;13.40;10.93;;;14.20;99.90;;;;;;5041178;28;20833;-44
2023/04/28 08:38:06;;;;;;;12.15;10.00;;;14.30;99.90;;;;;;5041410;28;20029;-43
2023/04/28 08:40:32;;;;;;;13.15;10.43;;;14.40;99.90;;;;;;5041108;28;20025;-43
2023/04/28 08:42:59;;;;;;;13.27;10.55;;;14.50;99.90;;;;;;5042315;28;20025;-43
2023/04/28 08:45:24;;;;;;;12.93;10.60;;;14.60;99.90;;;;;;5041656;28;20033;-44
2023/04/28 08:47:50;;;;;;;13.00;10.63;;;14.70;99.90;;;;;;5040979;28;20044;-43
2023/04/28 08:50:21;;;;;;;16.33;10.48;;;14.70;99.90;;;;;;5041906;28;20049;-44
2023/04/28 08:52:46;;;;;;;16.48;10.93;;;14.80;99.90;;;;;;5041670;28;20524;-43
2023/04/28 08:55:16;;;;;;;13.63;10.88;;;14.80;99.90;;;;;;5040955;28;20025;-44
2023/04/28 08:58:01;;;;;;;11.85;9.57;;;14.80;99.90;;;;;;5041919;28;20032;-44
2023/04/28 09:00:27;;;;;;;13.50;10.27;;;14.80;99.90;;;;;;5041487;28;20412;-43
2023/04/28 09:02:52;;;;;;;11.48;9.90;;;14.80;99.90;;;;;;5040237;28;20033;-43
2023/04/28 09:05:18;;;;;;;11.57;9.75;;;14.70;99.90;;;;;;5040652;28;20045;-43
2023/04/28 09:07:50;;;;;;;12.32;9.90;;;14.70;99.90;;;;;;5040301;28;20028;-43
2023/04/28 09:10:21;;;;;;;12.70;10.82;;;14.60;99.90;;;;;;5040505;28;20112;-45
2023/04/28 09:12:49;;;;;;;12.23;9.48;;;14.60;99.90;;;;;;5040759;28;20025;-44
2023/04/28 09:15:31;;;;;;;11.32;9.38;;;14.70;99.90;;;;;;5041605;28;20032;-43
2023/04/28 09:17:57;;;;;;;14.18;9.73;;;14.70;99.90;;;;;;5032428;28;20062;-44
2023/04/28 09:20:27;;;;;;;13.05;9.73;;;14.70;99.90;;;;;;5041305;28;20033;-43
2023/04/28 09:22:54;;;;;;;11.52;9.27;;;14.80;99.90;;;;;;5040907;28;20048;-43
2023/04/28 09:25:22;;;;;;;9.80;8.80;;;14.80;99.90;;;;;;5040312;28;20094;-43
2023/04/28 09:27:48;;;;;;;10.65;8.55;;;14.90;99.90;;;;;;5041633;28;20119;-44
2023/04/28 09:30:14;;;;;;;11.98;8.55;;;14.90;99.90;;;;;;5039602;28;20049;-43
2023/04/28 09:32:40;;;;;;;11.15;8.57;;;15.00;99.90;;;;;;5040980;28;20016;-43
2023/04/28 09:35:06;;;;;;;13.68;9.20;;;15.00;99.90;;;;;;5041586;28;20036;-43
2023/04/28 09:37:33;;;;;;;11.38;8.80;;;15.00;99.90;;;;;;5040353;28;20017;-42
2023/04/28 09:40:10;;;;;;;10.10;9.07;;;15.10;99.90;;;;;;5041407;28;20039;-42
2023/04/28 09:42:43;;;;;;;10.88;8.27;;;15.10;99.90;;;;;;5040724;28;20116;-43
2023/04/28 09:45:11;;;;;;;10.00;7.63;;;15.10;99.90;;;;;;5040075;28;20055;-43
2023/04/28 09:47:41;;;;;;;10.77;7.72;;;15.10;99.90;;;;;;5039818;28;20072;-43
2023/04/28 09:50:13;;;;;;;8.80;7.90;;;15.00;99.90;;;;;;5020638;28;20500;-44
2023/04/28 09:52:41;;;;;;;8.63;7.40;;;15.00;99.90;;;;;;5034609;28;20568;-44
2023/04/28 09:55:10;;;;;;;12.80;8.02;;;15.00;99.90;;;;;;5040558;28;20535;-43
2023/04/28 09:57:36;;;;;;;9.52;7.72;;;15.00;99.90;;;;;;5039446;28;20040;-43
2023/04/28 10:00:05;;;;;;;9.45;8.18;;;14.90;99.90;;;;;;5040300;28;20025;-46
2023/04/28 10:02:33;;;;;;;9.25;7.95;;;14.90;99.90;;;;;;5040465;28;20029;-44
2023/04/28 10:04:59;;;;;;;9.77;8.77;;;14.90;99.90;;;;;;5039935;28;20039;-43
2023/04/28 10:07:26;;;;;;;10.05;7.30;;;14.90;99.90;;;;;;5040640;28;20017;-43
2023/04/28 10:09:52;;;;;;;9.68;7.90;;;14.90;99.90;;;;;;5039916;28;20476;-44
2023/04/28 10:12:22;;;;;;;8.90;8.00;;;14.90;99.90;;;;;;5038332;28;20142;-44
2023/04/28 10:14:49;;;;;;;10.43;9.35;;;14.80;99.90;;;;;;5038891;28;20025;-44
2023/04/28 10:17:16;;;;;;;10.18;8.80;;;14.90;99.90;;;;;;5039828;28;20029;-44
2023/04/28 10:19:44;;;;;;;9.30;8.23;;;14.90;99.90;;;;;;5039447;28;20037;-43
2023/04/28 10:22:34;;;;;;;9.82;8.38;;;14.80;99.90;;;;;;5039719;28;20059;-43
2023/04/28 10:25:10;;;;;;;10.85;9.07;;;14.90;99.90;;;;;;5029116;28;20047;-45
2023/04/28 10:27:38;;;;;;;10.20;8.85;;;14.90;99.90;;;;;;5038967;28;21215;-43
2023/04/28 10:30:22;;;;;;;9.90;8.90;;;15.00;99.90;;;;;;5040004;28;20032;-43
2023/04/28 10:33:10;;;;;;;10.32;7.88;;;15.00;99.90;;;;;;5039691;28;20029;-43
2023/04/28 10:35:46;;;;;;;9.52;8.52;;;15.00;99.90;;;;;;5030845;28;20354;-43
2023/04/28 10:38:15;;;;;;;9.75;8.75;;;15.00;99.90;;;;;;5040030;28;20532;-44
2023/04/28 10:40:43;;;;;;;9.93;8.93;;;15.00;99.90;;;;;;5039755;28;20029;-42
2023/04/28 10:43:11;;;;;;;9.90;8.98;;;15.00;99.90;;;;;;5040155;28;20052;-42
2023/04/28 10:46:00;;;;;;;9.63;8.60;;;15.10;99.90;;;;;;5040509;28;20036;-43
2023/04/28 10:48:41;;;;;;;10.30;8.45;;;15.10;99.90;;;;;;5039276;28;20158;-43
2023/04/28 10:51:11;;;;;;;9.60;8.38;;;15.20;99.90;;;;;;5040173;28;20401;-44
2023/04/28 10:53:43;;;;;;;8.38;7.50;;;15.10;99.90;;;;;;5039381;28;20489;-44
2023/04/28 10:56:10;;;;;;;7.90;7.05;;;15.10;99.90;;;;;;5020143;28;20104;-42
2023/04/28 10:58:42;;;;;;;9.27;8.32;;;15.10;99.90;;;;;;5028087;28;20017;-42
2023/04/28 11:01:23;;;;;;;9.35;8.40;;;15.10;99.90;;;;;;5043085;28;20532;-42
2023/04/28 11:04:12;;;;;;;9.68;8.00;;;15.10;99.90;;;;;;5044127;28;20036;-43
2023/04/28 11:06:39;;;;;;;9.05;8.15;;;15.10;99.90;;;;;;5033997;28;20515;-44
2023/04/28 11:09:17;;;;;;;8.70;7.90;;;15.20;99.90;;;;;;5042526;28;20523;-43
2023/04/28 11:12:02;;;;;;;7.53;6.80;;;15.30;99.90;;;;;;5034104;28;20460;-44
2023/04/28 11:14:28;;;;;;;7.07;6.43;;;15.30;99.90;;;;;;5043406;28;20032;-43
2023/04/28 11:17:02;;;;;;;6.88;6.18;;;15.30;99.90;;;;;;5043045;28;20044;-43
2023/04/28 11:19:32;;;;;;;6.47;5.88;;;15.30;99.90;;;;;;5042901;28;20067;-43
2023/04/28 11:22:04;;;;;;;6.50;5.82;;;15.30;99.90;;;;;;5041597;28;20179;-43
2023/04/28 11:24:30;;;;;;;6.45;5.85;;;15.30;99.90;;;;;;5041898;28;20119;-43
2023/04/28 11:26:57;;;;;;;6.05;5.45;;;15.40;99.90;;;;;;5042569;28;20025;-44
2023/04/28 11:29:35;;;;;;;6.03;5.45;;;15.40;99.90;;;;;;5041954;28;20384;-43
2023/04/28 11:32:09;;;;;;;7.18;6.50;;;15.40;99.90;;;;;;5043295;28;20033;-43
2023/04/28 11:34:36;;;;;;;6.65;6.05;;;15.40;99.90;;;;;;5043447;28;20328;-44
2023/04/28 11:37:02;;;;;;;7.82;7.13;;;15.40;99.90;;;;;;5043491;28;20079;-42
2023/04/28 11:39:32;;;;;;;5.38;4.95;;;15.30;99.90;;;;;;5043617;28;20024;-44
2023/04/28 11:42:01;;;;;;;7.28;6.68;;;15.30;99.90;;;;;;5043036;28;20727;-43
2023/04/28 11:44:29;;;;;;;7.55;6.85;;;15.30;99.90;;;;;;5042569;28;20555;-42
2023/04/28 11:46:59;;;;;;;7.32;6.63;;;15.20;99.90;;;;;;5042887;28;20063;-43
2023/04/28 11:49:29;;;;;;;6.30;5.72;;;15.20;99.90;;;;;;5042967;28;20029;-43
2023/04/28 11:51:58;;;;;;;7.72;7.03;;;15.20;99.90;;;;;;5041892;28;20025;-43
2023/04/28 11:54:26;;;;;;;8.20;7.32;;;15.30;99.90;;;;;;5042908;28;20484;-42
2023/04/28 11:56:53;;;;;;;8.20;7.40;;;15.50;99.90;;;;;;5042402;28;20135;-43
2023/04/28 11:59:26;;;;;;;10.32;9.32;;;15.60;99.90;;;;;;5042864;28;20103;-43
2023/04/28 12:01:58;;;;;;;;;;;15.70;99.90;;;;;;5043503;28;20091;-43
2023/04/28 12:04:31;;;;;;;8.32;7.53;;;15.80;99.90;;;;;;5041644;28;20322;-43
2023/04/28 12:07:04;;;;;;;9.73;8.60;;;15.80;99.90;;;;;;5043068;28;20075;-43
2023/04/28 12:09:34;;;;;;;8.30;7.38;;;15.80;99.90;;;;;;5042803;28;20060;-43
2023/04/28 12:12:05;;;;;;;8.85;7.82;;;15.80;99.90;;;;;;5041064;28;20025;-42
2023/04/28 12:14:34;;;;;;;10.52;9.48;;;15.80;99.90;;;;;;5042693;28;20028;-42
2023/04/28 12:17:00;;;;;;;10.75;9.20;;;15.80;99.90;;;;;;5042901;28;20059;-43
2023/04/28 12:19:26;;;;;;;10.73;9.63;;;15.80;99.90;;;;;;5041557;28;20762;-43
2023/04/28 12:22:06;;;;;;;8.68;7.78;;;15.80;99.90;;;;;;5041679;28;20120;-43
2023/04/28 12:24:34;;;;;;;9.90;8.85;;;15.70;99.90;;;;;;5041880;28;20083;-43
2023/04/28 12:27:17;;;;;;;10.98;8.40;;;15.80;99.90;;;;;;5041774;28;20109;-43
2023/04/28 12:29:45;;;;;;;10.98;9.10;;;15.80;99.90;;;;;;5040906;28;20056;-43
2023/04/28 12:32:11;;;;;;;8.93;8.02;;;15.70;99.90;;;;;;5040700;28;20036;-44
2023/04/28 12:34:41;;;;;;;8.57;7.78;;;15.70;99.90;;;;;;5041327;28;20017;-43
2023/04/28 12:37:06;;;;;;;11.05;9.88;;;15.60;99.90;;;;;;5041564;28;20912;-43
2023/04/28 12:39:36;;;;;;;9.18;7.68;;;15.50;99.90;;;;;;5040756;28;20043;-43
2023/04/28 12:42:02;;;;;;;8.70;7.80;;;15.50;99.90;;;;;;5041844;28;20028;-44
2023/04/28 12:44:35;;;;;;;9.07;8.15;;;15.50;99.90;;;;;;5041429;28;20025;-44